Ship Status Report: callsign OS8154

sailwx.info

Track history (hours):
 
Tides and Currents Weather Stations Pressure Air Temp Water Temp Dewpoint Dewpoint Depression Visibility Wind Speed Wind Dir Waves Ship Positions

Callsign OS8154 (name unknown)

Last reported at 2015-May-24 20:00 UTC. Time now 2015-May-25 01:22 UTC.
Position N 68°42' W 052°54'.

Barometer 998.4 mb
Air temperature -0.0 ° C

Date/timePositionNaut miles runAvg speedWind from/ knotsBaromVisibWave heightAir tempDewpointWater temp
2015-May-24 20:00N 68°42' W 052°54'0 0.0 998.4 -0.0
2015-May-24 19:00N 68°42' W 052°54'0 0.0 998.8 -0.3
2015-May-24 16:00N 68°42' W 052°54'0 0.0 1001.4 1.3
2015-May-24 15:00N 68°42' W 052°54'0 0.0 1002.6 1.5
2015-May-24 11:00N 68°42' W 052°54'0 0.0 1006.5 0.8
2015-May-24 10:00N 68°42' W 052°54'0 0.0 1007.3 0.3
2015-May-24 06:00N 68°42' W 052°54'0 0.0 1010.5 -2.3
2015-May-24 00:00N 68°42' W 052°54'0 0.0 1013.4 -2.3
2015-May-23 22:00N 68°42' W 052°54'0 0.0 1013.7 -1.8
2015-May-23 21:00N 68°42' W 052°54'0 0.0 1013.9 -1.8
2015-May-23 17:00N 68°42' W 052°54'0 0.0 1012.6 -0.8
2015-May-23 12:00N 68°42' W 052°54'0 0.0 1010.8 -2.8
2015-May-23 10:00N 68°42' W 052°54'0 0.0 1009.4 -2.8
2015-May-23 04:00N 68°42' W 052°54'0 0.0 1004.6 -3.0
2015-May-23 03:00N 68°42' W 052°54'0 0.0 1004.1 -2.8
2015-May-23 01:00N 68°42' W 052°54'0 0.0 1003.4 -2.5
2015-May-22 20:00N 68°42' W 052°54'0 0.0 1000.7 0.3
2015-May-22 16:00N 68°42' W 052°54'0 0.0 998.9 0.5
2015-May-22 15:00N 68°42' W 052°54'0 0.0 998.7 -0.5
2015-May-22 14:00N 68°42' W 052°54'0 0.0 998.7 -1.0
2015-May-22 12:00N 68°42' W 052°54'0 0.0 998.9 -1.0
2015-May-22 10:00N 68°42' W 052°54'0 0.0 999.4 -1.0
2015-May-22 09:00N 68°42' W 052°54'0 0.0 999.9 -1.3
2015-May-22 05:00N 68°42' W 052°54'0 0.0 1002.6 -1.5
2015-May-22 04:00N 68°42' W 052°54'0 0.0 1003.6 -1.5
2015-May-22 00:00N 68°42' W 052°54'0 0.0 1007.3 -0.8
2015-May-21 19:00N 68°42' W 052°54'0 0.0 1012.2 -0.5
2015-May-21 15:00N 68°42' W 052°54'0 0.0 1013.9 1.0
2015-May-21 14:00N 68°42' W 052°54'0 0.0 1014.1 0.8
2015-May-21 12:00N 68°42' W 052°54'0 0.0 1014.1 -3.0
2015-May-21 10:00N 68°42' W 052°54'0 0.0 1013.4 -1.5
2015-May-21 09:00N 68°42' W 052°54'0 0.0 1013.4 -2.5
2015-May-21 07:00N 68°42' W 052°54'0 0.0 1012.7 -3.5
2015-May-21 06:00N 68°42' W 052°54'0 0.0 1012.2 -4.0
2015-May-21 01:00N 68°42' W 052°54'0 0.0 1010.3 -3.0
2015-May-21 00:00N 68°42' W 052°54'0 0.0 1009.8 -3.0
2015-May-20 14:00N 68°42' W 052°54'0 0.0 1005.4 -1.8
2015-May-20 11:00N 68°42' W 052°54'0 0.0 1004.3 -2.8
2015-May-20 10:00N 68°42' W 052°54'0 0.0 1004.0 -3.0
2015-May-20 09:00N 68°42' W 052°54'0 0.0 1003.4 -2.8
2015-May-20 04:00N 68°42' W 052°54'0 0.0 1001.6 -1.8
2015-May-20 03:00N 68°42' W 052°54'0 0.0 1001.8 -1.3
2015-May-19 23:00N 68°42' W 052°54'0 0.0 1002.4 0.8
2015-May-19 22:00N 68°42' W 052°54'0 0.0 1002.5 -0.0
2015-May-19 21:00N 68°42' W 052°54'0 0.0 1002.7 -0.5
2015-May-19 20:00N 68°42' W 052°54'0 0.0 1002.8 -0.0
2015-May-19 16:00N 68°42' W 052°54'0 0.0 1003.5 1.3
2015-May-19 11:00N 68°42' W 052°54'0 0.0 1005.1 -1.5
2015-May-19 10:00N 68°42' W 052°54'0 0.0 1005.3 -2.5
2015-May-19 09:00N 68°42' W 052°54'0 0.0 1005.3 -3.0
2015-May-19 07:00N 68°42' W 052°54'0 0.0 1006.2 -1.8
2015-May-19 04:00N 68°42' W 052°54'0 0.0 1006.4 -2.8
2015-May-19 03:00N 68°42' W 052°54'0 0.0 1006.4 -2.8
2015-May-19 02:00N 68°42' W 052°54'0 0.0 1006.1 -3.5
2015-May-19 01:00N 68°42' W 052°54'0 0.0 1005.5 -2.3
2015-May-19 00:00N 68°42' W 052°54'0 0.0 1004.7 -1.3
2015-May-18 21:00N 68°42' W 052°54'0 0.0 1001.7 -1.0
2015-May-18 20:00N 68°42' W 052°54'0 0.0 1000.9 -1.3
2015-May-18 18:00N 68°42' W 052°54'0 0.0 998.4 -2.0
2015-May-18 16:00N 68°42' W 052°54'0 0.0 996.3 -0.0
2015-May-18 15:00N 68°42' W 052°54'0 0.0 995.9 0.8
2015-May-18 11:00N 68°42' W 052°54'0 0.0 995.5 2.0
2015-May-18 09:00N 68°42' W 052°54'0 0.0 997.2 1.8
2015-May-18 08:00N 68°42' W 052°54'0 0.0 998.8 1.8
2015-May-18 07:00N 68°42' W 052°54'0 0.0 1000.3 1.5
2015-May-18 06:00N 68°42' W 052°54'0 0.0 1001.8 2.3
2015-May-18 04:00N 68°42' W 052°54'0 0.0 1005.0 1.3
2015-May-18 02:00N 68°42' W 052°54'0 0.0 1007.7 0.3
2015-May-18 00:00N 68°42' W 052°54'0 0.0 1009.1 -0.0
2015-May-17 22:00N 68°42' W 052°54'0 0.0 1010.5 -0.0
2015-May-17 21:00N 68°42' W 052°54'0 0.0 1011.3 -0.0
2015-May-17 20:00N 68°42' W 052°54'0 0.0 1012.1 0.3
2015-May-17 19:00N 68°42' W 052°54'0 0.0 1012.4 0.3
2015-May-17 17:00N 68°42' W 052°54'0 0.0 1013.0 -0.0
2015-May-17 12:00N 68°42' W 052°54'0 0.0 1011.8 -0.3
2015-May-17 08:00N 68°42' W 052°54'0 0.0 1011.0 -1.0
2015-May-17 04:00N 68°42' W 052°54'0 0.0 1011.3 -1.5
2015-May-17 03:00N 68°42' W 052°54'6 2.1 1011.6 -1.5
2015-May-17 00:00N 68°48' W 052°48'7 7.4 1013.0 -1.0
2015-May-16 23:00N 68°54' W 053°00'9 2.2 1013.6 -2.3
2015-May-16 19:00N 69°00' W 053°18'0 0.0 1015.4 -3.0
2015-May-16 18:00N 69°00' W 053°18'0 0.0 1015.4 -2.0
2015-May-16 14:00N 69°00' W 053°18'0 0.0 1015.2 -1.8
2015-May-16 12:00N 69°00' W 053°18'0 0.0 1014.3 -2.5
2015-May-16 11:00N 69°00' W 053°18'0 0.0 1013.9 -3.8
2015-May-16 07:00N 69°00' W 053°18'0 0.0 1012.5 -5.0
2015-May-16 04:00N 69°00' W 053°18'0 0.0 1011.0 -4.5
2015-May-15 19:00N 69°00' W 053°18'0 0.0 1006.4 -1.5
2015-May-15 16:00N 69°00' W 053°18'0 0.0 1005.2 -1.3
2015-May-15 13:00N 69°00' W 053°18'0 0.0 1004.2 -1.0
2015-May-15 09:00N 69°00' W 053°18'0 0.0 1001.9 -1.8
2015-May-15 08:00N 69°00' W 053°18'0 0.0 1001.2 -2.5
2015-May-15 04:00N 69°00' W 053°18'0 0.0 997.4 -2.3
2015-May-14 22:00N 69°00' W 053°18'6 3.2 990.9 2.0
2015-May-14 20:00N 68°54' W 053°12'   989.4 1.0
Track history (hours):
 
Tides and Currents Weather Stations Pressure Air Temp Water Temp Dewpoint Dewpoint Depression Visibility Wind Speed Wind Dir Waves Ship Positions

Callsign OS8154 (name unknown)

Last reported at 2015-May-24 20:00 UTC. Time now 2015-May-25 01:22 UTC.
Position N 68°42' W 052°54'.

Barometer 998.4 mb
Air temperature -0.0 ° C

Date/timePositionNaut miles runAvg speedWind from/ knotsBaromVisibWave heightAir tempDewpointWater temp
2015-May-24 20:00N 68°42' W 052°54'0 0.0 998.4 -0.0
2015-May-24 19:00N 68°42' W 052°54'0 0.0 998.8 -0.3
2015-May-24 16:00N 68°42' W 052°54'0 0.0 1001.4 1.3
2015-May-24 15:00N 68°42' W 052°54'0 0.0 1002.6 1.5
2015-May-24 11:00N 68°42' W 052°54'0 0.0 1006.5 0.8
2015-May-24 10:00N 68°42' W 052°54'0 0.0 1007.3 0.3
2015-May-24 06:00N 68°42' W 052°54'0 0.0 1010.5 -2.3
2015-May-24 00:00N 68°42' W 052°54'0 0.0 1013.4 -2.3
2015-May-23 22:00N 68°42' W 052°54'0 0.0 1013.7 -1.8
2015-May-23 21:00N 68°42' W 052°54'0 0.0 1013.9 -1.8
2015-May-23 17:00N 68°42' W 052°54'0 0.0 1012.6 -0.8
2015-May-23 12:00N 68°42' W 052°54'0 0.0 1010.8 -2.8
2015-May-23 10:00N 68°42' W 052°54'0 0.0 1009.4 -2.8
2015-May-23 04:00N 68°42' W 052°54'0 0.0 1004.6 -3.0
2015-May-23 03:00N 68°42' W 052°54'0 0.0 1004.1 -2.8
2015-May-23 01:00N 68°42' W 052°54'0 0.0 1003.4 -2.5
2015-May-22 20:00N 68°42' W 052°54'0 0.0 1000.7 0.3
2015-May-22 16:00N 68°42' W 052°54'0 0.0 998.9 0.5
2015-May-22 15:00N 68°42' W 052°54'0 0.0 998.7 -0.5
2015-May-22 14:00N 68°42' W 052°54'0 0.0 998.7 -1.0
2015-May-22 12:00N 68°42' W 052°54'0 0.0 998.9 -1.0
2015-May-22 10:00N 68°42' W 052°54'0 0.0 999.4 -1.0
2015-May-22 09:00N 68°42' W 052°54'0 0.0 999.9 -1.3
2015-May-22 05:00N 68°42' W 052°54'0 0.0 1002.6 -1.5
2015-May-22 04:00N 68°42' W 052°54'0 0.0 1003.6 -1.5
2015-May-22 00:00N 68°42' W 052°54'0 0.0 1007.3 -0.8
2015-May-21 19:00N 68°42' W 052°54'0 0.0 1012.2 -0.5
2015-May-21 15:00N 68°42' W 052°54'0 0.0 1013.9 1.0
2015-May-21 14:00N 68°42' W 052°54'0 0.0 1014.1 0.8
2015-May-21 12:00N 68°42' W 052°54'0 0.0 1014.1 -3.0
2015-May-21 10:00N 68°42' W 052°54'0 0.0 1013.4 -1.5
2015-May-21 09:00N 68°42' W 052°54'0 0.0 1013.4 -2.5
2015-May-21 07:00N 68°42' W 052°54'0 0.0 1012.7 -3.5
2015-May-21 06:00N 68°42' W 052°54'0 0.0 1012.2 -4.0
2015-May-21 01:00N 68°42' W 052°54'0 0.0 1010.3 -3.0
2015-May-21 00:00N 68°42' W 052°54'0 0.0 1009.8 -3.0
2015-May-20 14:00N 68°42' W 052°54'0 0.0 1005.4 -1.8
2015-May-20 11:00N 68°42' W 052°54'0 0.0 1004.3 -2.8
2015-May-20 10:00N 68°42' W 052°54'0 0.0 1004.0 -3.0
2015-May-20 09:00N 68°42' W 052°54'0 0.0 1003.4 -2.8
2015-May-20 04:00N 68°42' W 052°54'0 0.0 1001.6 -1.8
2015-May-20 03:00N 68°42' W 052°54'0 0.0 1001.8 -1.3
2015-May-19 23:00N 68°42' W 052°54'0 0.0 1002.4 0.8
2015-May-19 22:00N 68°42' W 052°54'0 0.0 1002.5 -0.0
2015-May-19 21:00N 68°42' W 052°54'0 0.0 1002.7 -0.5
2015-May-19 20:00N 68°42' W 052°54'0 0.0 1002.8 -0.0
2015-May-19 16:00N 68°42' W 052°54'0 0.0 1003.5 1.3
2015-May-19 11:00N 68°42' W 052°54'0 0.0 1005.1 -1.5
2015-May-19 10:00N 68°42' W 052°54'0 0.0 1005.3 -2.5
2015-May-19 09:00N 68°42' W 052°54'0 0.0 1005.3 -3.0
2015-May-19 07:00N 68°42' W 052°54'0 0.0 1006.2 -1.8
2015-May-19 04:00N 68°42' W 052°54'0 0.0 1006.4 -2.8
2015-May-19 03:00N 68°42' W 052°54'0 0.0 1006.4 -2.8
2015-May-19 02:00N 68°42' W 052°54'0 0.0 1006.1 -3.5
2015-May-19 01:00N 68°42' W 052°54'0 0.0 1005.5 -2.3
2015-May-19 00:00N 68°42' W 052°54'0 0.0 1004.7 -1.3
2015-May-18 21:00N 68°42' W 052°54'0 0.0 1001.7 -1.0
2015-May-18 20:00N 68°42' W 052°54'0 0.0 1000.9 -1.3
2015-May-18 18:00N 68°42' W 052°54'0 0.0 998.4 -2.0
2015-May-18 16:00N 68°42' W 052°54'0 0.0 996.3 -0.0
2015-May-18 15:00N 68°42' W 052°54'0 0.0 995.9 0.8
2015-May-18 11:00N 68°42' W 052°54'0 0.0 995.5 2.0
2015-May-18 09:00N 68°42' W 052°54'0 0.0 997.2 1.8
2015-May-18 08:00N 68°42' W 052°54'0 0.0 998.8 1.8
2015-May-18 07:00N 68°42' W 052°54'0 0.0 1000.3 1.5
2015-May-18 06:00N 68°42' W 052°54'0 0.0 1001.8 2.3
2015-May-18 04:00N 68°42' W 052°54'0 0.0 1005.0 1.3
2015-May-18 02:00N 68°42' W 052°54'0 0.0 1007.7 0.3
2015-May-18 00:00N 68°42' W 052°54'0 0.0 1009.1 -0.0
2015-May-17 22:00N 68°42' W 052°54'0 0.0 1010.5 -0.0
2015-May-17 21:00N 68°42' W 052°54'0 0.0 1011.3 -0.0
2015-May-17 20:00N 68°42' W 052°54'0 0.0 1012.1 0.3
2015-May-17 19:00N 68°42' W 052°54'0 0.0 1012.4 0.3
2015-May-17 17:00N 68°42' W 052°54'0 0.0 1013.0 -0.0
2015-May-17 12:00N 68°42' W 052°54'0 0.0 1011.8 -0.3
2015-May-17 08:00N 68°42' W 052°54'0 0.0 1011.0 -1.0
2015-May-17 04:00N 68°42' W 052°54'0 0.0 1011.3 -1.5
2015-May-17 03:00N 68°42' W 052°54'6 2.1 1011.6 -1.5
2015-May-17 00:00N 68°48' W 052°48'7 7.4 1013.0 -1.0
2015-May-16 23:00N 68°54' W 053°00'9 2.2 1013.6 -2.3
2015-May-16 19:00N 69°00' W 053°18'0 0.0 1015.4 -3.0
2015-May-16 18:00N 69°00' W 053°18'0 0.0 1015.4 -2.0
2015-May-16 14:00N 69°00' W 053°18'0 0.0 1015.2 -1.8
2015-May-16 12:00N 69°00' W 053°18'0 0.0 1014.3 -2.5
2015-May-16 11:00N 69°00' W 053°18'0 0.0 1013.9 -3.8
2015-May-16 07:00N 69°00' W 053°18'0 0.0 1012.5 -5.0
2015-May-16 04:00N 69°00' W 053°18'0 0.0 1011.0 -4.5
2015-May-15 19:00N 69°00' W 053°18'0 0.0 1006.4 -1.5
2015-May-15 16:00N 69°00' W 053°18'0 0.0 1005.2 -1.3
2015-May-15 13:00N 69°00' W 053°18'0 0.0 1004.2 -1.0
2015-May-15 09:00N 69°00' W 053°18'0 0.0 1001.9 -1.8
2015-May-15 08:00N 69°00' W 053°18'0 0.0 1001.2 -2.5
2015-May-15 04:00N 69°00' W 053°18'0 0.0 997.4 -2.3
2015-May-14 22:00N 69°00' W 053°18'6 3.2 990.9 2.0
2015-May-14 20:00N 68°54' W 053°12'   989.4 1.0

Dump ship's entire track history